sensor_id;sensor_type;location;lat;lon;timestamp;temperature;humidity
5126;DHT22;2581;53.112;8.896;2022-07-24T00:01:32;17.70;99.90
5126;DHT22;2581;53.112;8.896;2022-07-24T00:03:58;17.70;99.90
5126;DHT22;2581;53.112;8.896;2022-07-24T00:06:23;17.70;99.90
5126;DHT22;2581;53.112;8.896;2022-07-24T00:08:49;17.70;99.90
5126;DHT22;2581;53.112;8.896;2022-07-24T00:11:16;17.70;99.90
5126;DHT22;2581;53.112;8.896;2022-07-24T00:13:41;17.70;99.90
5126;DHT22;2581;53.112;8.896;2022-07-24T00:16:07;17.70;99.90
5126;DHT22;2581;53.112;8.896;2022-07-24T00:18:34;17.60;99.90
5126;DHT22;2581;53.112;8.896;2022-07-24T00:21:00;17.60;99.90
5126;DHT22;2581;53.112;8.896;2022-07-24T00:23:26;17.60;99.90
5126;DHT22;2581;53.112;8.896;2022-07-24T00:25:52;17.60;99.90
5126;DHT22;2581;53.112;8.896;2022-07-24T00:28:18;17.60;99.90
5126;DHT22;2581;53.112;8.896;2022-07-24T00:30:44;17.60;99.90
5126;DHT22;2581;53.112;8.896;2022-07-24T00:33:10;17.60;99.90
5126;DHT22;2581;53.112;8.896;2022-07-24T00:35:36;17.60;99.90
5126;DHT22;2581;53.112;8.896;2022-07-24T00:38:02;17.60;99.90
5126;DHT22;2581;53.112;8.896;2022-07-24T00:40:28;17.50;99.90
5126;DHT22;2581;53.112;8.896;2022-07-24T00:42:56;17.50;99.90
5126;DHT22;2581;53.112;8.896;2022-07-24T00:45:22;17.50;99.90
5126;DHT22;2581;53.112;8.896;2022-07-24T00:47:48;17.50;99.90
5126;DHT22;2581;53.112;8.896;2022-07-24T00:50:14;17.50;99.90
5126;DHT22;2581;53.112;8.896;2022-07-24T00:52:40;17.50;99.90
5126;DHT22;2581;53.112;8.896;2022-07-24T00:55:06;17.50;99.90
5126;DHT22;2581;53.112;8.896;2022-07-24T00:57:33;17.50;99.90
5126;DHT22;2581;53.112;8.896;2022-07-24T00:59:58;17.50;99.90
5126;DHT22;2581;53.112;8.896;2022-07-24T01:02:24;17.40;99.90
5126;DHT22;2581;53.112;8.896;2022-07-24T01:04:50;17.40;99.90
5126;DHT22;2581;53.112;8.896;2022-07-24T01:07:16;17.30;99.90
5126;DHT22;2581;53.112;8.896;2022-07-24T01:09:42;17.30;99.90
5126;DHT22;2581;53.112;8.896;2022-07-24T01:12:08;17.30;99.90
5126;DHT22;2581;53.112;8.896;2022-07-24T01:14:34;17.30;99.90
5126;DHT22;2581;53.112;8.896;2022-07-24T01:17:00;17.30;99.90
5126;DHT22;2581;53.112;8.896;2022-07-24T01:19:26;17.30;99.90
5126;DHT22;2581;53.112;8.896;2022-07-24T01:21:53;17.30;99.90
5126;DHT22;2581;53.112;8.896;2022-07-24T01:24:20;17.30;99.90
5126;DHT22;2581;53.112;8.896;2022-07-24T01:26:46;17.30;99.90
5126;DHT22;2581;53.112;8.896;2022-07-24T01:29:12;17.30;99.90
5126;DHT22;2581;53.112;8.896;2022-07-24T01:31:38;17.30;99.90
5126;DHT22;2581;53.112;8.896;2022-07-24T01:34:04;17.20;99.90
5126;DHT22;2581;53.112;8.896;2022-07-24T01:36:30;17.20;99.90
5126;DHT22;2581;53.112;8.896;2022-07-24T01:38:56;17.20;99.90
5126;DHT22;2581;53.112;8.896;2022-07-24T01:41:22;17.20;99.90
5126;DHT22;2581;53.112;8.896;2022-07-24T01:43:47;17.20;99.90
5126;DHT22;2581;53.112;8.896;2022-07-24T01:46:13;17.10;99.90
5126;DHT22;2581;53.112;8.896;2022-07-24T01:48:41;17.10;99.90
5126;DHT22;2581;53.112;8.896;2022-07-24T01:51:07;17.10;99.90
5126;DHT22;2581;53.112;8.896;2022-07-24T01:53:33;17.10;99.90
5126;DHT22;2581;53.112;8.896;2022-07-24T01:55:58;17.10;99.90
5126;DHT22;2581;53.112;8.896;2022-07-24T01:58:24;17.10;99.90
5126;DHT22;2581;53.112;8.896;2022-07-24T02:00:50;17.10;99.90
5126;DHT22;2581;53.112;8.896;2022-07-24T02:03:16;17.00;99.90
5126;DHT22;2581;53.112;8.896;2022-07-24T02:05:42;17.10;99.90
5126;DHT22;2581;53.112;8.896;2022-07-24T02:08:07;17.00;99.90
5126;DHT22;2581;53.112;8.896;2022-07-24T02:10:33;17.10;99.90
5126;DHT22;2581;53.112;8.896;2022-07-24T02:12:59;17.10;99.90
5126;DHT22;2581;53.112;8.896;2022-07-24T02:15:25;17.10;99.90
5126;DHT22;2581;53.112;8.896;2022-07-24T02:17:53;17.00;99.90
5126;DHT22;2581;53.112;8.896;2022-07-24T02:20:19;17.00;99.90
5126;DHT22;2581;53.112;8.896;2022-07-24T02:22:45;16.90;99.90
5126;DHT22;2581;53.112;8.896;2022-07-24T02:25:12;17.00;99.90
5126;DHT22;2581;53.112;8.896;2022-07-24T02:27:38;17.00;99.90
5126;DHT22;2581;53.112;8.896;2022-07-24T02:30:06;16.90;99.90
5126;DHT22;2581;53.112;8.896;2022-07-24T02:32:33;16.90;99.90
5126;DHT22;2581;53.112;8.896;2022-07-24T02:34:58;16.80;99.90
5126;DHT22;2581;53.112;8.896;2022-07-24T02:37:24;16.80;99.90
5126;DHT22;2581;53.112;8.896;2022-07-24T02:39:49;16.90;99.90
5126;DHT22;2581;53.112;8.896;2022-07-24T02:42:15;16.90;99.90
5126;DHT22;2581;53.112;8.896;2022-07-24T02:44:41;16.90;99.90
5126;DHT22;2581;53.112;8.896;2022-07-24T02:47:06;16.80;99.90
5126;DHT22;2581;53.112;8.896;2022-07-24T02:49:32;16.80;99.90
5126;DHT22;2581;53.112;8.896;2022-07-24T02:52:01;16.80;99.90
5126;DHT22;2581;53.112;8.896;2022-07-24T02:54:27;16.90;99.90
5126;DHT22;2581;53.112;8.896;2022-07-24T02:56:52;16.90;99.90
5126;DHT22;2581;53.112;8.896;2022-07-24T02:59:18;16.90;99.90
5126;DHT22;2581;53.112;8.896;2022-07-24T03:01:43;16.90;99.90
5126;DHT22;2581;53.112;8.896;2022-07-24T03:04:09;16.90;99.90
5126;DHT22;2581;53.112;8.896;2022-07-24T03:06:35;16.80;99.90
5126;DHT22;2581;53.112;8.896;2022-07-24T03:09:01;16.80;99.90
5126;DHT22;2581;53.112;8.896;2022-07-24T03:11:27;16.80;99.90
5126;DHT22;2581;53.112;8.896;2022-07-24T03:13:52;16.80;99.90
5126;DHT22;2581;53.112;8.896;2022-07-24T03:16:18;16.80;99.90
5126;DHT22;2581;53.112;8.896;2022-07-24T03:18:44;16.80;99.90
5126;DHT22;2581;53.112;8.896;2022-07-24T03:21:13;16.80;99.90
5126;DHT22;2581;53.112;8.896;2022-07-24T03:23:39;16.80;99.90
5126;DHT22;2581;53.112;8.896;2022-07-24T03:26:05;16.80;99.90
5126;DHT22;2581;53.112;8.896;2022-07-24T03:28:30;16.70;99.90
5126;DHT22;2581;53.112;8.896;2022-07-24T03:30:56;16.70;99.90
5126;DHT22;2581;53.112;8.896;2022-07-24T03:33:22;16.80;99.90
5126;DHT22;2581;53.112;8.896;2022-07-24T03:35:48;16.80;99.90
5126;DHT22;2581;53.112;8.896;2022-07-24T03:38:14;16.80;99.90
5126;DHT22;2581;53.112;8.896;2022-07-24T03:40:40;16.70;99.90
5126;DHT22;2581;53.112;8.896;2022-07-24T03:43:05;16.70;99.90
5126;DHT22;2581;53.112;8.896;2022-07-24T03:45:31;16.70;99.90
5126;DHT22;2581;53.112;8.896;2022-07-24T03:47:57;16.70;99.90
5126;DHT22;2581;53.112;8.896;2022-07-24T03:50:22;16.80;99.90
5126;DHT22;2581;53.112;8.896;2022-07-24T03:52:48;16.70;99.90
5126;DHT22;2581;53.112;8.896;2022-07-24T03:55:14;16.80;99.90
5126;DHT22;2581;53.112;8.896;2022-07-24T03:57:40;16.80;99.90
5126;DHT22;2581;53.112;8.896;2022-07-24T04:00:06;16.80;99.90
5126;DHT22;2581;53.112;8.896;2022-07-24T04:02:33;16.80;99.90
5126;DHT22;2581;53.112;8.896;2022-07-24T04:04:59;16.80;99.90
5126;DHT22;2581;53.112;8.896;2022-07-24T04:07:24;16.80;99.90
5126;DHT22;2581;53.112;8.896;2022-07-24T04:09:50;16.70;99.90
5126;DHT22;2581;53.112;8.896;2022-07-24T04:12:16;16.80;99.90
5126;DHT22;2581;53.112;8.896;2022-07-24T04:14:41;16.80;99.90
5126;DHT22;2581;53.112;8.896;2022-07-24T04:17:07;16.80;99.90
5126;DHT22;2581;53.112;8.896;2022-07-24T04:19:33;16.90;99.90
5126;DHT22;2581;53.112;8.896;2022-07-24T04:21:58;16.90;99.90
5126;DHT22;2581;53.112;8.896;2022-07-24T04:24:24;16.90;99.90
5126;DHT22;2581;53.112;8.896;2022-07-24T04:26:50;16.90;99.90
5126;DHT22;2581;53.112;8.896;2022-07-24T04:29:15;16.90;99.90
5126;DHT22;2581;53.112;8.896;2022-07-24T04:31:41;17.00;99.90
5126;DHT22;2581;53.112;8.896;2022-07-24T04:34:06;17.00;99.90
5126;DHT22;2581;53.112;8.896;2022-07-24T04:36:32;17.10;99.90
5126;DHT22;2581;53.112;8.896;2022-07-24T04:38:58;17.10;99.90
5126;DHT22;2581;53.112;8.896;2022-07-24T04:41:23;17.20;99.90
5126;DHT22;2581;53.112;8.896;2022-07-24T04:43:49;17.20;99.90
5126;DHT22;2581;53.112;8.896;2022-07-24T04:46:16;17.20;99.90
5126;DHT22;2581;53.112;8.896;2022-07-24T04:48:42;17.30;99.90
5126;DHT22;2581;53.112;8.896;2022-07-24T04:51:08;17.40;99.90
5126;DHT22;2581;53.112;8.896;2022-07-24T04:53:34;17.50;99.90
5126;DHT22;2581;53.112;8.896;2022-07-24T04:55:59;17.60;99.90
5126;DHT22;2581;53.112;8.896;2022-07-24T04:58:26;17.70;99.90
5126;DHT22;2581;53.112;8.896;2022-07-24T05:00:52;17.80;99.90
5126;DHT22;2581;53.112;8.896;2022-07-24T05:03:18;17.90;99.90
5126;DHT22;2581;53.112;8.896;2022-07-24T05:05:43;18.00;99.90
5126;DHT22;2581;53.112;8.896;2022-07-24T05:08:09;18.00;99.90
5126;DHT22;2581;53.112;8.896;2022-07-24T05:10:35;18.10;99.90
5126;DHT22;2581;53.112;8.896;2022-07-24T05:13:01;18.10;99.90
5126;DHT22;2581;53.112;8.896;2022-07-24T05:15:26;18.10;99.90
5126;DHT22;2581;53.112;8.896;2022-07-24T05:17:52;18.20;99.90
5126;DHT22;2581;53.112;8.896;2022-07-24T05:20:18;18.20;99.90
5126;DHT22;2581;53.112;8.896;2022-07-24T05:22:43;18.30;99.90
5126;DHT22;2581;53.112;8.896;2022-07-24T05:25:09;18.30;99.90
5126;DHT22;2581;53.112;8.896;2022-07-24T05:27:35;18.30;99.90
5126;DHT22;2581;53.112;8.896;2022-07-24T05:30:01;18.40;99.90
5126;DHT22;2581;53.112;8.896;2022-07-24T05:32:27;18.40;99.90
5126;DHT22;2581;53.112;8.896;2022-07-24T05:34:53;18.40;99.90
5126;DHT22;2581;53.112;8.896;2022-07-24T05:37:18;18.50;99.90
5126;DHT22;2581;53.112;8.896;2022-07-24T05:39:44;18.50;99.90
5126;DHT22;2581;53.112;8.896;2022-07-24T05:42:10;18.60;99.90
5126;DHT22;2581;53.112;8.896;2022-07-24T05:44:35;18.70;99.90
5126;DHT22;2581;53.112;8.896;2022-07-24T05:47:03;18.60;99.90
5126;DHT22;2581;53.112;8.896;2022-07-24T05:49:29;18.60;99.90
5126;DHT22;2581;53.112;8.896;2022-07-24T05:51:54;18.70;99.90
5126;DHT22;2581;53.112;8.896;2022-07-24T05:54:20;18.70;99.90
5126;DHT22;2581;53.112;8.896;2022-07-24T05:56:46;18.70;99.90
5126;DHT22;2581;53.112;8.896;2022-07-24T05:59:11;18.80;99.90
5126;DHT22;2581;53.112;8.896;2022-07-24T06:01:37;18.80;99.90
5126;DHT22;2581;53.112;8.896;2022-07-24T06:04:03;18.90;99.90
5126;DHT22;2581;53.112;8.896;2022-07-24T06:06:28;18.90;99.90
5126;DHT22;2581;53.112;8.896;2022-07-24T06:08:54;19.00;99.90
5126;DHT22;2581;53.112;8.896;2022-07-24T06:11:20;19.00;99.90
5126;DHT22;2581;53.112;8.896;2022-07-24T06:13:48;19.00;99.90
5126;DHT22;2581;53.112;8.896;2022-07-24T06:16:13;19.00;99.90
5126;DHT22;2581;53.112;8.896;2022-07-24T06:18:39;19.00;99.90
5126;DHT22;2581;53.112;8.896;2022-07-24T06:21:05;19.00;99.90
5126;DHT22;2581;53.112;8.896;2022-07-24T06:23:31;19.00;99.90
5126;DHT22;2581;53.112;8.896;2022-07-24T06:25:58;19.00;99.90
5126;DHT22;2581;53.112;8.896;2022-07-24T06:28:23;19.00;99.90
5126;DHT22;2581;53.112;8.896;2022-07-24T06:30:49;19.10;99.90
5126;DHT22;2581;53.112;8.896;2022-07-24T06:33:15;19.10;99.90
5126;DHT22;2581;53.112;8.896;2022-07-24T06:35:40;19.20;99.90
5126;DHT22;2581;53.112;8.896;2022-07-24T06:38:06;19.30;99.90
5126;DHT22;2581;53.112;8.896;2022-07-24T06:40:32;19.30;99.90
5126;DHT22;2581;53.112;8.896;2022-07-24T06:42:59;19.40;99.90
5126;DHT22;2581;53.112;8.896;2022-07-24T06:45:25;19.40;99.90
5126;DHT22;2581;53.112;8.896;2022-07-24T06:47:51;19.50;99.90
5126;DHT22;2581;53.112;8.896;2022-07-24T06:50:17;19.60;99.90
5126;DHT22;2581;53.112;8.896;2022-07-24T06:52:43;19.60;99.90
5126;DHT22;2581;53.112;8.896;2022-07-24T06:55:09;19.70;99.90
5126;DHT22;2581;53.112;8.896;2022-07-24T06:57:34;19.70;99.90
5126;DHT22;2581;53.112;8.896;2022-07-24T07:00:00;19.80;99.90
5126;DHT22;2581;53.112;8.896;2022-07-24T07:02:26;19.90;99.90
5126;DHT22;2581;53.112;8.896;2022-07-24T07:04:52;20.00;99.90
5126;DHT22;2581;53.112;8.896;2022-07-24T07:07:17;20.00;99.90
5126;DHT22;2581;53.112;8.896;2022-07-24T07:09:43;20.10;99.90
5126;DHT22;2581;53.112;8.896;2022-07-24T07:12:09;20.10;99.90
5126;DHT22;2581;53.112;8.896;2022-07-24T07:14:35;20.20;99.90
5126;DHT22;2581;53.112;8.896;2022-07-24T07:17:01;20.30;99.90
5126;DHT22;2581;53.112;8.896;2022-07-24T07:19:27;20.40;99.90
5126;DHT22;2581;53.112;8.896;2022-07-24T07:21:52;20.50;99.90
5126;DHT22;2581;53.112;8.896;2022-07-24T07:24:18;20.50;99.90
5126;DHT22;2581;53.112;8.896;2022-07-24T07:26:44;20.60;99.90
5126;DHT22;2581;53.112;8.896;2022-07-24T07:29:09;20.70;99.90
5126;DHT22;2581;53.112;8.896;2022-07-24T07:31:35;20.70;99.90
5126;DHT22;2581;53.112;8.896;2022-07-24T07:34:01;20.80;99.90
5126;DHT22;2581;53.112;8.896;2022-07-24T07:36:26;20.90;99.90
5126;DHT22;2581;53.112;8.896;2022-07-24T07:38:52;21.00;99.90
5126;DHT22;2581;53.112;8.896;2022-07-24T07:41:18;21.00;99.90
5126;DHT22;2581;53.112;8.896;2022-07-24T07:43:46;21.10;99.90
5126;DHT22;2581;53.112;8.896;2022-07-24T07:46:15;21.20;99.90
5126;DHT22;2581;53.112;8.896;2022-07-24T07:48:41;21.20;99.90
5126;DHT22;2581;53.112;8.896;2022-07-24T07:51:07;21.30;99.90
5126;DHT22;2581;53.112;8.896;2022-07-24T07:53:33;21.40;99.90
5126;DHT22;2581;53.112;8.896;2022-07-24T07:55:59;21.50;99.90
5126;DHT22;2581;53.112;8.896;2022-07-24T07:58:26;21.50;99.90
5126;DHT22;2581;53.112;8.896;2022-07-24T08:00:53;21.50;99.90
5126;DHT22;2581;53.112;8.896;2022-07-24T08:03:18;21.70;99.90
5126;DHT22;2581;53.112;8.896;2022-07-24T08:05:44;21.80;99.90
5126;DHT22;2581;53.112;8.896;2022-07-24T08:08:10;21.80;99.90
5126;DHT22;2581;53.112;8.896;2022-07-24T08:10:35;21.90;99.90
5126;DHT22;2581;53.112;8.896;2022-07-24T08:13:01;21.90;99.90
5126;DHT22;2581;53.112;8.896;2022-07-24T08:15:27;22.00;99.90
5126;DHT22;2581;53.112;8.896;2022-07-24T08:17:56;22.00;99.90
5126;DHT22;2581;53.112;8.896;2022-07-24T08:20:24;22.10;99.90
5126;DHT22;2581;53.112;8.896;2022-07-24T08:22:50;22.20;99.90
5126;DHT22;2581;53.112;8.896;2022-07-24T08:25:16;22.30;99.90
5126;DHT22;2581;53.112;8.896;2022-07-24T08:27:43;22.30;99.90
5126;DHT22;2581;53.112;8.896;2022-07-24T08:30:10;22.40;99.90
5126;DHT22;2581;53.112;8.896;2022-07-24T08:32:36;22.50;99.90
5126;DHT22;2581;53.112;8.896;2022-07-24T08:35:04;22.50;99.90
5126;DHT22;2581;53.112;8.896;2022-07-24T08:37:29;22.60;99.90
5126;DHT22;2581;53.112;8.896;2022-07-24T08:39:55;22.60;99.90
5126;DHT22;2581;53.112;8.896;2022-07-24T08:42:21;22.70;99.90
5126;DHT22;2581;53.112;8.896;2022-07-24T08:44:47;22.70;99.90
5126;DHT22;2581;53.112;8.896;2022-07-24T08:47:15;22.80;99.90
5126;DHT22;2581;53.112;8.896;2022-07-24T08:49:41;22.90;99.90
5126;DHT22;2581;53.112;8.896;2022-07-24T08:52:09;22.90;99.90
5126;DHT22;2581;53.112;8.896;2022-07-24T08:54:35;23.00;99.90
5126;DHT22;2581;53.112;8.896;2022-07-24T08:57:03;23.00;99.90
5126;DHT22;2581;53.112;8.896;2022-07-24T08:59:29;23.10;99.90
5126;DHT22;2581;53.112;8.896;2022-07-24T09:01:54;23.20;99.90
5126;DHT22;2581;53.112;8.896;2022-07-24T09:04:34;23.30;99.90
5126;DHT22;2581;53.112;8.896;2022-07-24T09:07:03;23.30;99.90
5126;DHT22;2581;53.112;8.896;2022-07-24T09:09:29;23.40;99.90
5126;DHT22;2581;53.112;8.896;2022-07-24T09:12:08;23.50;99.90
5126;DHT22;2581;53.112;8.896;2022-07-24T09:14:37;23.60;99.90
5126;DHT22;2581;53.112;8.896;2022-07-24T09:17:08;23.70;99.90
5126;DHT22;2581;53.112;8.896;2022-07-24T09:19:56;23.80;99.90
5126;DHT22;2581;53.112;8.896;2022-07-24T09:22:43;23.90;99.90
5126;DHT22;2581;53.112;8.896;2022-07-24T09:25:22;24.00;99.90
5126;DHT22;2581;53.112;8.896;2022-07-24T09:30:42;24.10;99.90
5126;DHT22;2581;53.112;8.896;2022-07-24T09:35:42;24.10;99.90
5126;DHT22;2581;53.112;8.896;2022-07-24T09:38:09;24.10;99.90
5126;DHT22;2581;53.112;8.896;2022-07-24T09:40:43;24.10;99.90
5126;DHT22;2581;53.112;8.896;2022-07-24T09:48:31;24.40;99.90
5126;DHT22;2581;53.112;8.896;2022-07-24T09:51:01;24.40;99.90
5126;DHT22;2581;53.112;8.896;2022-07-24T09:53:29;24.50;99.90
5126;DHT22;2581;53.112;8.896;2022-07-24T09:55:57;24.60;99.90
5126;DHT22;2581;53.112;8.896;2022-07-24T09:58:24;24.70;99.90
5126;DHT22;2581;53.112;8.896;2022-07-24T10:00:56;24.90;99.90
5126;DHT22;2581;53.112;8.896;2022-07-24T10:03:27;25.00;99.90
5126;DHT22;2581;53.112;8.896;2022-07-24T10:05:55;25.20;99.90
5126;DHT22;2581;53.112;8.896;2022-07-24T10:08:22;25.30;99.90
5126;DHT22;2581;53.112;8.896;2022-07-24T10:10:49;25.40;99.90
5126;DHT22;2581;53.112;8.896;2022-07-24T10:13:15;25.50;99.90
5126;DHT22;2581;53.112;8.896;2022-07-24T10:15:53;25.50;99.90
5126;DHT22;2581;53.112;8.896;2022-07-24T10:18:20;25.60;99.90
5126;DHT22;2581;53.112;8.896;2022-07-24T10:20:47;25.70;99.90
5126;DHT22;2581;53.112;8.896;2022-07-24T10:23:23;25.80;99.90
5126;DHT22;2581;53.112;8.896;2022-07-24T10:31:00;26.00;99.90
5126;DHT22;2581;53.112;8.896;2022-07-24T10:33:26;26.10;99.90
5126;DHT22;2581;53.112;8.896;2022-07-24T10:35:54;26.20;99.90
5126;DHT22;2581;53.112;8.896;2022-07-24T10:38:30;26.30;99.90
5126;DHT22;2581;53.112;8.896;2022-07-24T10:41:02;26.40;99.90
5126;DHT22;2581;53.112;8.896;2022-07-24T10:43:30;26.50;99.90
5126;DHT22;2581;53.112;8.896;2022-07-24T10:51:03;26.70;99.90
5126;DHT22;2581;53.112;8.896;2022-07-24T10:59:10;26.80;99.90
5126;DHT22;2581;53.112;8.896;2022-07-24T11:01:41;26.90;99.90
5126;DHT22;2581;53.112;8.896;2022-07-24T11:06:59;27.10;99.90
5126;DHT22;2581;53.112;8.896;2022-07-24T11:09:27;27.20;99.90
5126;DHT22;2581;53.112;8.896;2022-07-24T11:17:43;27.50;99.90
5126;DHT22;2581;53.112;8.896;2022-07-24T11:20:11;27.50;99.90
5126;DHT22;2581;53.112;8.896;2022-07-24T11:22:42;27.70;99.90
5126;DHT22;2581;53.112;8.896;2022-07-24T11:25:12;27.80;99.90
5126;DHT22;2581;53.112;8.896;2022-07-24T11:27:43;27.90;99.90
5126;DHT22;2581;53.112;8.896;2022-07-24T11:30:10;28.00;99.90
5126;DHT22;2581;53.112;8.896;2022-07-24T11:32:41;28.10;99.90
5126;DHT22;2581;53.112;8.896;2022-07-24T11:35:07;28.30;99.90
5126;DHT22;2581;53.112;8.896;2022-07-24T11:37:38;28.30;99.90
5126;DHT22;2581;53.112;8.896;2022-07-24T11:40:06;28.30;99.90
5126;DHT22;2581;53.112;8.896;2022-07-24T11:42:33;28.40;99.90
5126;DHT22;2581;53.112;8.896;2022-07-24T11:44:59;28.30;99.90
5126;DHT22;2581;53.112;8.896;2022-07-24T11:47:27;28.10;99.90
5126;DHT22;2581;53.112;8.896;2022-07-24T11:50:01;27.90;99.90
5126;DHT22;2581;53.112;8.896;2022-07-24T11:55:15;27.70;99.90
5126;DHT22;2581;53.112;8.896;2022-07-24T11:57:42;27.80;99.90
5126;DHT22;2581;53.112;8.896;2022-07-24T12:00:13;27.90;99.90
5126;DHT22;2581;53.112;8.896;2022-07-24T12:02:45;28.00;99.90
5126;DHT22;2581;53.112;8.896;2022-07-24T12:05:11;28.10;99.90
5126;DHT22;2581;53.112;8.896;2022-07-24T12:07:36;28.10;99.90
5126;DHT22;2581;53.112;8.896;2022-07-24T12:10:03;28.20;99.90
5126;DHT22;2581;53.112;8.896;2022-07-24T12:12:32;28.30;99.90
5126;DHT22;2581;53.112;8.896;2022-07-24T12:17:56;28.60;99.90
5126;DHT22;2581;53.112;8.896;2022-07-24T12:20:30;28.80;99.90
5126;DHT22;2581;53.112;8.896;2022-07-24T12:22:57;28.90;99.90
5126;DHT22;2581;53.112;8.896;2022-07-24T12:25:24;29.10;99.90
5126;DHT22;2581;53.112;8.896;2022-07-24T12:27:50;29.20;99.90
5126;DHT22;2581;53.112;8.896;2022-07-24T12:30:27;29.40;99.90
5126;DHT22;2581;53.112;8.896;2022-07-24T12:35:19;29.50;99.90
5126;DHT22;2581;53.112;8.896;2022-07-24T12:37:45;29.60;99.90
5126;DHT22;2581;53.112;8.896;2022-07-24T12:40:25;29.70;99.90
5126;DHT22;2581;53.112;8.896;2022-07-24T12:43:09;30.00;99.90
5126;DHT22;2581;53.112;8.896;2022-07-24T12:45:36;30.10;99.90
5126;DHT22;2581;53.112;8.896;2022-07-24T12:48:17;30.20;99.90
5126;DHT22;2581;53.112;8.896;2022-07-24T12:51:05;30.10;99.90
5126;DHT22;2581;53.112;8.896;2022-07-24T12:53:33;30.30;99.90
5126;DHT22;2581;53.112;8.896;2022-07-24T12:56:14;30.30;99.90
5126;DHT22;2581;53.112;8.896;2022-07-24T12:58:57;30.30;99.90
5126;DHT22;2581;53.112;8.896;2022-07-24T13:01:26;30.50;99.90
5126;DHT22;2581;53.112;8.896;2022-07-24T13:04:01;30.60;99.90
5126;DHT22;2581;53.112;8.896;2022-07-24T13:06:41;30.70;99.90
5126;DHT22;2581;53.112;8.896;2022-07-24T13:09:09;30.60;99.90
5126;DHT22;2581;53.112;8.896;2022-07-24T13:11:36;30.60;99.90
5126;DHT22;2581;53.112;8.896;2022-07-24T13:14:03;30.50;99.90
5126;DHT22;2581;53.112;8.896;2022-07-24T13:16:30;30.60;99.90
5126;DHT22;2581;53.112;8.896;2022-07-24T13:18:57;30.70;99.90
5126;DHT22;2581;53.112;8.896;2022-07-24T13:21:22;30.90;99.90
5126;DHT22;2581;53.112;8.896;2022-07-24T13:23:48;31.00;99.90
5126;DHT22;2581;53.112;8.896;2022-07-24T13:26:14;31.10;99.90
5126;DHT22;2581;53.112;8.896;2022-07-24T13:28:39;31.10;99.90
5126;DHT22;2581;53.112;8.896;2022-07-24T13:31:06;31.10;99.90
5126;DHT22;2581;53.112;8.896;2022-07-24T13:33:31;31.10;99.90
5126;DHT22;2581;53.112;8.896;2022-07-24T13:35:57;31.10;99.90
5126;DHT22;2581;53.112;8.896;2022-07-24T13:38:23;31.00;99.90
5126;DHT22;2581;53.112;8.896;2022-07-24T13:40:48;31.10;99.90
5126;DHT22;2581;53.112;8.896;2022-07-24T13:43:14;31.20;99.90
5126;DHT22;2581;53.112;8.896;2022-07-24T13:45:39;31.20;99.90
5126;DHT22;2581;53.112;8.896;2022-07-24T13:48:05;31.30;99.90
5126;DHT22;2581;53.112;8.896;2022-07-24T13:50:31;31.30;99.90
5126;DHT22;2581;53.112;8.896;2022-07-24T13:52:57;31.30;99.90
5126;DHT22;2581;53.112;8.896;2022-07-24T13:55:22;31.30;99.80
5126;DHT22;2581;53.112;8.896;2022-07-24T13:57:48;31.20;99.90
5126;DHT22;2581;53.112;8.896;2022-07-24T14:00:14;31.30;99.90
5126;DHT22;2581;53.112;8.896;2022-07-24T14:02:40;31.30;99.90
5126;DHT22;2581;53.112;8.896;2022-07-24T14:05:07;31.30;99.80
5126;DHT22;2581;53.112;8.896;2022-07-24T14:07:33;31.30;99.60
5126;DHT22;2581;53.112;8.896;2022-07-24T14:09:58;31.30;99.30
5126;DHT22;2581;53.112;8.896;2022-07-24T14:12:26;31.40;99.70
5126;DHT22;2581;53.112;8.896;2022-07-24T14:14:53;31.40;99.50
5126;DHT22;2581;53.112;8.896;2022-07-24T14:17:19;31.60;99.60
5126;DHT22;2581;53.112;8.896;2022-07-24T14:19:45;31.70;99.50
5126;DHT22;2581;53.112;8.896;2022-07-24T14:22:10;31.70;98.70
5126;DHT22;2581;53.112;8.896;2022-07-24T14:24:36;31.80;98.70
5126;DHT22;2581;53.112;8.896;2022-07-24T14:27:02;31.70;98.30
5126;DHT22;2581;53.112;8.896;2022-07-24T14:29:28;31.60;98.70
5126;DHT22;2581;53.112;8.896;2022-07-24T14:31:53;31.60;99.10
5126;DHT22;2581;53.112;8.896;2022-07-24T14:34:19;31.60;99.20
5126;DHT22;2581;53.112;8.896;2022-07-24T14:36:46;31.60;98.90
5126;DHT22;2581;53.112;8.896;2022-07-24T14:39:12;31.60;98.90
5126;DHT22;2581;53.112;8.896;2022-07-24T14:41:37;31.60;98.80
5126;DHT22;2581;53.112;8.896;2022-07-24T14:44:04;31.60;98.90
5126;DHT22;2581;53.112;8.896;2022-07-24T14:46:29;31.70;98.70
5126;DHT22;2581;53.112;8.896;2022-07-24T14:48:55;31.60;99.00
5126;DHT22;2581;53.112;8.896;2022-07-24T14:51:21;31.70;99.10
5126;DHT22;2581;53.112;8.896;2022-07-24T14:53:46;31.80;99.80
5126;DHT22;2581;53.112;8.896;2022-07-24T14:56:12;31.90;99.20
5126;DHT22;2581;53.112;8.896;2022-07-24T14:58:38;32.00;98.80
5126;DHT22;2581;53.112;8.896;2022-07-24T15:01:04;32.10;99.10
5126;DHT22;2581;53.112;8.896;2022-07-24T15:03:30;32.20;98.80
5126;DHT22;2581;53.112;8.896;2022-07-24T15:05:55;32.20;98.50
5126;DHT22;2581;53.112;8.896;2022-07-24T15:08:21;32.20;98.30
5126;DHT22;2581;53.112;8.896;2022-07-24T15:10:47;32.20;98.50
5126;DHT22;2581;53.112;8.896;2022-07-24T15:13:13;32.10;98.00
5126;DHT22;2581;53.112;8.896;2022-07-24T15:15:38;32.00;97.90
5126;DHT22;2581;53.112;8.896;2022-07-24T15:18:04;32.00;97.80
5126;DHT22;2581;53.112;8.896;2022-07-24T15:20:30;31.90;97.90
5126;DHT22;2581;53.112;8.896;2022-07-24T15:22:56;31.70;98.10
5126;DHT22;2581;53.112;8.896;2022-07-24T15:25:21;31.70;98.50
5126;DHT22;2581;53.112;8.896;2022-07-24T15:27:47;31.70;98.30
5126;DHT22;2581;53.112;8.896;2022-07-24T15:30:19;31.70;98.20
5126;DHT22;2581;53.112;8.896;2022-07-24T15:32:45;31.70;98.30
5126;DHT22;2581;53.112;8.896;2022-07-24T15:35:11;31.70;98.50
5126;DHT22;2581;53.112;8.896;2022-07-24T15:37:37;31.60;98.10
5126;DHT22;2581;53.112;8.896;2022-07-24T15:40:03;31.60;98.20
5126;DHT22;2581;53.112;8.896;2022-07-24T15:42:29;31.60;98.50
5126;DHT22;2581;53.112;8.896;2022-07-24T15:44:55;31.70;98.10
5126;DHT22;2581;53.112;8.896;2022-07-24T15:47:20;31.60;97.80
5126;DHT22;2581;53.112;8.896;2022-07-24T15:49:46;31.70;98.30
5126;DHT22;2581;53.112;8.896;2022-07-24T15:52:12;31.60;98.10
5126;DHT22;2581;53.112;8.896;2022-07-24T15:54:37;31.60;98.20
5126;DHT22;2581;53.112;8.896;2022-07-24T15:57:03;31.60;98.10
5126;DHT22;2581;53.112;8.896;2022-07-24T15:59:29;31.50;98.10
5126;DHT22;2581;53.112;8.896;2022-07-24T16:01:54;31.50;98.50
5126;DHT22;2581;53.112;8.896;2022-07-24T16:04:21;31.40;98.50
5126;DHT22;2581;53.112;8.896;2022-07-24T16:06:47;31.40;98.80
5126;DHT22;2581;53.112;8.896;2022-07-24T16:09:13;31.40;98.40
5126;DHT22;2581;53.112;8.896;2022-07-24T16:11:39;31.40;98.70
5126;DHT22;2581;53.112;8.896;2022-07-24T16:14:05;31.30;98.80
5126;DHT22;2581;53.112;8.896;2022-07-24T16:16:31;31.30;98.80
5126;DHT22;2581;53.112;8.896;2022-07-24T16:18:56;31.30;98.90
5126;DHT22;2581;53.112;8.896;2022-07-24T16:21:23;31.30;98.70
5126;DHT22;2581;53.112;8.896;2022-07-24T16:23:49;31.30;98.70
5126;DHT22;2581;53.112;8.896;2022-07-24T16:26:14;31.30;98.70
5126;DHT22;2581;53.112;8.896;2022-07-24T16:28:40;31.30;98.80
5126;DHT22;2581;53.112;8.896;2022-07-24T16:31:06;31.30;98.90
5126;DHT22;2581;53.112;8.896;2022-07-24T16:33:32;31.20;98.50
5126;DHT22;2581;53.112;8.896;2022-07-24T16:35:58;31.10;98.60
5126;DHT22;2581;53.112;8.896;2022-07-24T16:38:24;31.00;98.80
5126;DHT22;2581;53.112;8.896;2022-07-24T16:40:50;31.00;99.10
5126;DHT22;2581;53.112;8.896;2022-07-24T16:43:17;31.00;99.00